Time;durP1;ratioP1;P1;durP2;ratioP2;P2;SDS_P1;SDS_P2;PMS_P1;PMS_P2;Temp;Humidity;BMP_temperature;BMP_pressure;BME280_temperature;BME280_humidity;BME280_pressure;Samples;Min_cycle;Max_cycle;Signal;HPM_P1;HPM_P2
2023/12/27 00:08:00;;;;;;;;;;;4.90;99.90;;;;;;6766730;87;20054;-84
2023/12/27 00:18:00;;;;;;;;;;;4.60;99.90;;;;;;6767161;87;20051;-84
2023/12/27 00:28:01;;;;;;;;;;;4.60;99.90;;;;;;6767645;87;20026;-83
2023/12/27 00:38:01;;;;;;;;;;;4.40;99.90;;;;;;6767513;87;20200;-83
2023/12/27 00:48:02;;;;;;;;;;;4.70;99.90;;;;;;6767948;87;20038;-83
2023/12/27 00:58:02;;;;;;;;;;;4.90;99.90;;;;;;6769097;87;20040;-83
2023/12/27 01:08:03;;;;;;;;;;;4.80;99.90;;;;;;6769884;87;20034;-84
2023/12/27 01:18:03;;;;;;;;;;;4.60;99.90;;;;;;6769768;87;20050;-83
2023/12/27 01:28:04;;;;;;;;;;;4.50;99.90;;;;;;6769752;87;20065;-84
2023/12/27 01:38:04;;;;;;;;;;;4.40;99.90;;;;;;6769732;87;20055;-85
2023/12/27 01:48:05;;;;;;;;;;;4.40;99.90;;;;;;6769228;87;20785;-82
2023/12/27 01:58:10;;;;;;;;;;;4.50;99.90;;;;;;6769571;87;20038;-81
2023/12/27 02:08:11;;;;;;;;;;;4.50;99.90;;;;;;6768994;87;20626;-80
2023/12/27 02:18:12;;;;;;;;;;;4.60;99.90;;;;;;6769365;87;20215;-83
2023/12/27 02:28:13;;;;;;;;;;;4.90;99.90;;;;;;6769073;87;20383;-83
2023/12/27 02:38:13;;;;;;;;;;;5.00;99.90;;;;;;6768954;87;20691;-83
2023/12/27 02:48:13;;;;;;;;;;;5.30;99.90;;;;;;6732186;88;20156;-83
2023/12/27 02:58:14;;;;;;;;;;;5.20;99.90;;;;;;6732412;88;20074;-84
2023/12/27 03:08:14;;;;;;;;;;;4.90;99.90;;;;;;6732494;88;20062;-84
2023/12/27 03:18:15;;;;;;;;;;;4.80;99.90;;;;;;6761047;87;20074;-83
2023/12/27 03:28:15;;;;;;;;;;;4.70;99.90;;;;;;6749183;88;20130;-84
2023/12/27 03:38:16;;;;;;;;;;;4.80;99.90;;;;;;6748601;88;20943;-80
2023/12/27 03:48:16;;;;;;;;;;;4.90;99.90;;;;;;6748660;88;20034;-83
2023/12/27 03:58:17;;;;;;;;;;;5.00;99.90;;;;;;6763857;87;20052;-81
2023/12/27 04:08:38;;;;;;;;;;;5.20;99.90;;;;;;6761998;77;20058;-78
2023/12/27 04:18:38;;;;;;;;;;;5.20;99.90;;;;;;6740515;88;20038;-78
2023/12/27 04:28:39;;;;;;;;;;;5.40;99.90;;;;;;6740214;88;20049;-79
2023/12/27 04:38:39;;;;;;;;;;;5.60;99.90;;;;;;6742929;88;20584;-79
2023/12/27 04:48:40;;;;;;;;;;;5.70;99.90;;;;;;6741861;88;20084;-80
2023/12/27 04:58:40;;;;;;;;;;;5.90;99.90;;;;;;6742601;88;20069;-78
2023/12/27 05:08:41;;;;;;;;;;;6.00;99.90;;;;;;6725899;88;20195;-78
2023/12/27 05:18:42;;;;;;;;;;;6.10;99.90;;;;;;6729639;88;20053;-78
2023/12/27 05:28:42;;;;;;;;;;;6.20;99.90;;;;;;6733662;88;20055;-79
2023/12/27 05:38:43;;;;;;;;;;;6.40;99.90;;;;;;6733159;88;20076;-78
2023/12/27 05:48:43;;;;;;;;;;;6.50;99.90;;;;;;6736294;88;20493;-78
2023/12/27 05:58:44;;;;;;;;;;;6.60;99.90;;;;;;6721776;88;20087;-78
2023/12/27 06:08:44;;;;;;;;;;;6.70;99.90;;;;;;6727276;88;20087;-79
2023/12/27 06:18:44;;;;;;;;;;;6.70;99.90;;;;;;6732116;88;20046;-79
2023/12/27 06:28:45;;;;;;;;;;;6.70;99.90;;;;;;6732063;88;20129;-78
2023/12/27 06:38:46;;;;;;;;;;;6.70;99.90;;;;;;6726022;88;20062;-78
2023/12/27 06:48:46;;;;;;;;;;;6.80;99.90;;;;;;6725539;88;20122;-79
2023/12/27 06:58:47;;;;;;;;;;;6.90;99.90;;;;;;6736854;88;20059;-78
2023/12/27 07:08:47;;;;;;;;;;;7.00;99.90;;;;;;6738128;88;20066;-78
2023/12/27 07:18:48;;;;;;;;;;;7.10;99.90;;;;;;6732372;88;20221;-78
2023/12/27 07:28:48;;;;;;;;;;;7.20;99.90;;;;;;6735127;88;20126;-78
2023/12/27 07:38:48;;;;;;;;;;;7.30;99.90;;;;;;6722966;88;20129;-78
2023/12/27 07:48:50;;;;;;;;;;;7.40;99.90;;;;;;6724959;88;20605;-78
2023/12/27 07:58:50;;;;;;;;;;;7.50;99.90;;;;;;6732252;88;20469;-78
2023/12/27 08:08:51;;;;;;;;;;;7.60;99.90;;;;;;6735976;88;20047;-80
2023/12/27 08:18:53;;;;;;;;;;;7.60;99.90;;;;;;6733383;88;20079;-78
2023/12/27 08:28:53;;;;;;;;;;;7.80;99.90;;;;;;6720962;88;20132;-78
2023/12/27 08:38:54;;;;;;;;;;;8.00;99.90;;;;;;6718262;88;20058;-77
2023/12/27 08:48:54;;;;;;;;;;;8.10;99.90;;;;;;6732712;88;20193;-77
2023/12/27 08:58:55;;;;;;;;;;;8.10;99.90;;;;;;6724220;88;20128;-78
2023/12/27 09:08:55;;;;;;;;;;;8.10;99.90;;;;;;6733295;88;20513;-78
2023/12/27 09:18:56;;;;;;;;;;;8.20;99.90;;;;;;6732034;88;20070;-78
2023/12/27 09:28:56;;;;;;;;;;;8.20;99.90;;;;;;6738773;88;20054;-77
2023/12/27 09:38:56;;;;;;;;;;;8.20;99.90;;;;;;6738882;88;20069;-78
2023/12/27 09:48:57;;;;;;;;;;;8.30;99.90;;;;;;6727237;88;20502;-78
2023/12/27 09:58:58;;;;;;;;;;;8.40;99.90;;;;;;6738376;88;20083;-78
2023/12/27 10:20:00;;;;;;;;;;;8.50;99.90;;;;;;6729570;88;20076;-82
2023/12/27 10:30:03;;;;;;;;;;;8.70;99.90;;;;;;6745782;88;20149;-82
2023/12/27 10:40:04;;;;;;;;;;;8.70;99.90;;;;;;6745820;88;20081;-81
2023/12/27 10:50:05;;;;;;;;;;;8.90;99.90;;;;;;6740619;88;20088;-82
2023/12/27 11:00:08;;;;;;;;;;;9.10;99.90;;;;;;6745061;88;20140;-82
2023/12/27 11:10:09;;;;;;;;;;;9.30;99.90;;;;;;6746450;88;20349;-82
2023/12/27 11:20:13;;;;;;;;;;;9.80;99.90;;;;;;6746764;88;20147;-82
2023/12/27 11:30:13;;;;;;;;;;;10.00;99.90;;;;;;6762885;88;20075;-81
2023/12/27 11:40:14;;;;;;;;;;;9.80;99.90;;;;;;6761877;88;20038;-82
2023/12/27 11:50:14;;;;;;;;;;;9.70;99.90;;;;;;6762418;88;20050;-82
2023/12/27 12:00:24;;;;;;;;;;;9.80;99.90;;;;;;6762433;88;20026;-82
2023/12/27 12:10:26;;;;;;;;;;;10.20;99.90;;;;;;6745087;88;20194;-82
2023/12/27 12:20:27;;;;;;;;;;;10.30;99.90;;;;;;6742336;88;20079;-82
2023/12/27 12:30:27;;;;;;;;;;;10.50;99.90;;;;;;6741807;88;20076;-82
2023/12/27 12:40:28;;;;;;;;;;;10.50;99.90;;;;;;6743603;88;20091;-82
2023/12/27 12:50:29;;;;;;;;;;;10.60;99.90;;;;;;6740900;88;20097;-82
2023/12/27 13:00:30;;;;;;;;;;;10.60;99.90;;;;;;6761588;87;20100;-82
2023/12/27 13:10:31;;;;;;;;;;;10.50;99.90;;;;;;6762461;87;20060;-82
2023/12/27 13:20:31;;;;;;;;;;;10.20;99.90;;;;;;6762123;87;20049;-82
2023/12/27 13:30:31;;;;;;;;;;;10.10;99.90;;;;;;6761771;87;20580;-82
2023/12/27 13:40:34;;;;;;;;;;;10.00;99.90;;;;;;6762293;87;20143;-82
2023/12/27 13:50:34;;;;;;;;;;;9.90;99.90;;;;;;6762283;88;20049;-82
2023/12/27 14:00:35;;;;;;;;;;;9.80;99.90;;;;;;6762236;87;20058;-82
2023/12/27 14:10:35;;;;;;;;;;;9.70;99.90;;;;;;6762311;87;20083;-82
2023/12/27 14:20:36;;;;;;;;;;;9.60;99.90;;;;;;6757923;88;20093;-82
2023/12/27 14:30:36;;;;;;;;;;;9.50;99.90;;;;;;6761536;88;20754;-84
2023/12/27 14:40:36;;;;;;;;;;;9.40;99.90;;;;;;6767310;88;20047;-83
2023/12/27 14:50:37;;;;;;;;;;;9.40;99.90;;;;;;6767948;88;20611;-84
2023/12/27 15:00:37;;;;;;;;;;;9.20;99.90;;;;;;6747897;88;20054;-83
2023/12/27 15:10:38;;;;;;;;;;;9.10;99.90;;;;;;6748185;88;20023;-83
2023/12/27 15:20:39;;;;;;;;;;;9.00;99.90;;;;;;6748089;88;20083;-83
2023/12/27 15:30:39;;;;;;;;;;;8.90;99.90;;;;;;6762887;88;20108;-83
2023/12/27 15:40:40;;;;;;;;;;;8.80;99.90;;;;;;6748002;88;20683;-83
2023/12/27 15:50:40;;;;;;;;;;;8.80;99.90;;;;;;6747235;88;20023;-83
2023/12/27 16:00:41;;;;;;;;;;;8.60;99.90;;;;;;6747640;88;20173;-83
2023/12/27 16:10:41;;;;;;;;;;;8.50;99.90;;;;;;6762774;88;20053;-83
2023/12/27 16:20:42;;;;;;;;;;;8.50;99.90;;;;;;6747278;88;20173;-80
2023/12/27 16:30:42;;;;;;;;;;;8.40;99.90;;;;;;6746029;88;20126;-80
2023/12/27 16:40:43;;;;;;;;;;;8.40;99.90;;;;;;6746206;88;20082;-79
2023/12/27 16:50:45;;;;;;;;;;;8.40;99.90;;;;;;6761229;88;20463;-85
2023/12/27 17:00:45;;;;;;;;;;;8.30;99.90;;;;;;6749278;88;20051;-80
2023/12/27 17:10:46;;;;;;;;;;;8.30;99.90;;;;;;6749138;88;20026;-80
2023/12/27 17:20:46;;;;;;;;;;;8.20;99.90;;;;;;6748462;88;20594;-80
2023/12/27 17:30:47;;;;;;;;;;;8.20;99.90;;;;;;6761619;88;20125;-80
2023/12/27 17:40:47;;;;;;;;;;;8.20;99.90;;;;;;6758133;88;20066;-82
2023/12/27 17:50:48;;;;;;;;;;;8.00;99.90;;;;;;6760720;88;20063;-80
2023/12/27 18:00:49;;;;;;;;;;;8.10;99.90;;;;;;6756847;88;20516;-82
2023/12/27 18:10:49;;;;;;;;;;;7.90;99.90;;;;;;6760669;88;20083;-81
2023/12/27 18:20:50;;;;;;;;;;;7.90;99.90;;;;;;6745189;88;20049;-81
2023/12/27 18:30:51;;;;;;;;;;;7.80;99.90;;;;;;6741606;88;21586;-81
2023/12/27 18:40:52;;;;;;;;;;;7.80;99.90;;;;;;6759043;88;20046;-81
2023/12/27 18:50:53;;;;;;;;;;;7.80;99.90;;;;;;6745978;88;20027;-81
2023/12/27 19:00:55;;;;;;;;;;;7.60;99.90;;;;;;6757356;88;20071;-80
2023/12/27 19:10:55;;;;;;;;;;;7.60;99.90;;;;;;6764260;88;20592;-80
2023/12/27 19:20:56;;;;;;;;;;;7.60;99.90;;;;;;6749771;88;20044;-80
2023/12/27 19:30:56;;;;;;;;;;;7.60;99.90;;;;;;6748197;88;20050;-81
2023/12/27 19:40:57;;;;;;;;;;;7.60;99.90;;;;;;6744887;88;20677;-80
2023/12/27 19:50:57;;;;;;;;;;;7.50;99.90;;;;;;6753499;88;20043;-80
2023/12/27 20:00:58;;;;;;;;;;;7.60;99.90;;;;;;6762402;88;20061;-81
2023/12/27 20:11:00;;;;;;;;;;;7.50;99.90;;;;;;6762969;88;20105;-81
2023/12/27 20:21:03;;;;;;;;;;;8.30;99.90;;;;;;6756446;88;20084;-80
2023/12/27 20:31:03;;;;;;;;;;;9.20;99.90;;;;;;6759480;88;20073;-80
2023/12/27 20:41:04;;;;;;;;;;;9.50;99.90;;;;;;6759184;88;20125;-80
2023/12/27 20:51:05;;;;;;;;;;;9.70;99.90;;;;;;6742075;88;20063;-80
2023/12/27 21:01:05;;;;;;;;;;;9.90;99.90;;;;;;6750032;88;20665;-80
2023/12/27 21:11:06;;;;;;;;;;;9.90;99.90;;;;;;6750964;88;20140;-82
2023/12/27 21:21:06;;;;;;;;;;;10.30;99.90;;;;;;6748675;88;20215;-80
2023/12/27 21:31:09;;;;;;;;;;;10.10;99.90;;;;;;6754126;88;20051;-80
2023/12/27 21:41:09;;;;;;;;;;;10.10;99.90;;;;;;6749459;88;20063;-81
2023/12/27 21:51:17;;;;;;;;;;;9.90;99.90;;;;;;6745613;88;20074;-80
2023/12/27 22:01:18;;;;;;;;;;;9.80;99.90;;;;;;6743055;88;20886;-81
2023/12/27 22:11:19;;;;;;;;;;;9.70;99.90;;;;;;6748733;88;20144;-79
2023/12/27 22:31:23;;;;;;;;;;;9.90;99.90;;;;;;6748015;88;20090;-78
2023/12/27 22:41:23;;;;;;;;;;;10.00;99.90;;;;;;6740338;88;20609;-79
2023/12/27 22:51:24;;;;;;;;;;;10.20;99.90;;;;;;6739793;88;20043;-77
2023/12/27 23:01:24;;;;;;;;;;;10.20;99.90;;;;;;6735623;88;20067;-78
2023/12/27 23:11:25;;;;;;;;;;;10.30;99.90;;;;;;6741555;88;20080;-78
2023/12/27 23:21:25;;;;;;;;;;;10.30;99.90;;;;;;6743142;88;20046;-78
2023/12/27 23:31:26;;;;;;;;;;;10.20;99.90;;;;;;6766022;87;20074;-78
2023/12/27 23:41:26;;;;;;;;;;;10.20;99.90;;;;;;6756668;87;20058;-78
2023/12/27 23:51:28;;;;;;;;;;;10.30;99.90;;;;;;6756082;87;20056;-77
